x

Montauk Point -23 Nm Ssw Of Montauk Point, Ny (44017) Wave Buoy

4:50pm - Wed 16th Apr 2014 All times are EDT. -4 hours from GMT.

  • Sig Wave height 3.9ft
  • Swell Direction
  • Peak Period 10s
  • Average Period 6s
  • Wind
    13mph, 18mph gusts
  • Sea Temp 42°f
  • Air Temp 42°f
  • Sea Pressure 1028.9mb
  • Montauk Point -23 Nm Ssw Of Montauk Point, Ny
  • Montauk Point -23 Nm Ssw Of Montauk Point, Ny

More Historic Weather Station data

Upgrade to MSW Pro to gain access to the past 30 days of data for over 8000 Wavebouys and Weather Stations around the globe.

Join Pro

Comparision Forecast

View Surf forecast
   
Wed 04/16 4:50pm 4ft 10s 6s 13 18 mph 1028.9mb 42f 42f
3:50pm 4.5ft 11s 6s 13 16 mph 1028.2mb 42f 40f
2:50pm 5ft 11s 6s 13 16 mph 1028.7mb 42f 39f
1:50pm 5ft 10s 5s 16 20 mph 1028.1mb 42f 38f
12:50pm 5.5ft 11s 5s 20 25 mph 1027.1mb 41f 36f
11:50am 5.5ft 5s 5s 25 29 mph 1025.9mb 41f 36f
10:50am 6ft 5s 5s 25 29 mph 1024.7mb 41f 35f
9:50am 6ft 10s 5s 22 27 mph 1023.3mb 41f 34f
8:50am 7ft 10s 5s 25 29 mph 1021.8mb 41f 34f
7:50am 7.5ft 5s 5s 31 38 mph 1020.6mb 41f 34f
6:50am 8ft 11s 6s 29 36 mph 1018.8mb 41f 35f
5:50am 8.5ft 10s 6s 34 40 mph 1015.8mb 42f 35f
4:50am 8ft 11s 6s 29 38 mph 1013.6mb 42f 35f
3:50am 8ft 11s 6s 29 36 mph 1011.1mb 42f 34f
2:50am 8ft 11s 6s 31 38 mph 1011.8mb 42f 36f
1:50am 8ft 11s 6s 25 29 mph 1009.6mb 42f 38f
12:50am 10ft 11s 6s 29 34 mph 1008.9mb 42f 38f
Tue 04/15 11:50pm 9.5ft 11s 6s 31 40 mph 1007.5mb 42f 39f
10:50pm 9.5ft 10s 6s 31 38 mph 1005.8mb 43f 42f
9:50pm 10ft 10s 7s 22 31 mph 1004.1mb 43f 46f
8:50pm 10ft 8s 6s 27 31 mph 1001.8mb 43f 52f
7:50pm 10ft 9s 7s 18 22 mph 1002.7mb 42f 50f
6:50pm 10.5ft 9s 6s 27 34 mph 1002.8mb 43f 54f
5:50pm 10.5ft 9s 6s 27 34 mph 1003.3mb 43f 52f
4:50pm 10.5ft 9s 6s 25 38 mph 1004.6mb 43f 51f
3:50pm 9.5ft 9s 6s 27 31 mph 1003.8mb 43f 53f
2:50pm 8.5ft 9s 6s 27 34 mph 1004.3mb 43f 52f
1:50pm 8ft 8s 6s 27 34 mph 1005.3mb 43f 52f
12:50pm 8ft 9s 6s 25 29 mph 1006.6mb 43f 51f
11:50am 7ft 8s 5s 25 31 mph 1006.9mb 43f 51f
10:50am 6.5ft 8s 6s 22 27 mph 1008.2mb 43f 52f
9:50am 6.5ft 8s 5s 22 27 mph 1008.8mb 43f 51f
8:50am 6ft 8s 6s 20 25 mph 1009.5mb 43f 50f
7:50am 6.5ft 8s 6s 22 25 mph 1009.9mb 43f 51f
6:50am 6ft 7s 5s 20 25 mph 1010.7mb 43f 50f
5:50am 6ft 8s 5s 20 22 mph 1011.3mb 43f 50f
4:50am 5.5ft 7s 5s 22 25 mph 1011.7mb 43f 51f
3:50am 5.5ft 8s 5s 20 25 mph 1012mb 43f 50f
2:50am 5ft 8s 5s 18
mph
1012.1mb 43f 49f
1:50am 5.5ft 8s 5s 20 22 mph 1012.7mb 43f 50f
12:50am 5ft 8s 5s 22 25 mph 1013mb 43f 50f
Mon 04/14 11:50pm 5ft 8s 5s 20 25 mph 1013.5mb 43f 50f
10:50pm 5ft 7s 5s 22 27 mph 1014mb 43f 50f
9:50pm 5ft 7s 5s 20 22 mph 1014.7mb 43f 50f
8:50pm 4.5ft 7s 5s 18 20 mph 1015.1mb 43f 49f
7:50pm 4.5ft 7s 5s 16 20 mph 1014.9mb 42f 49f
6:50pm 4.5ft 7s 5s 16 20 mph 1015mb 42f 49f
5:50pm 5ft 7s 5s 16 18 mph 1015.2mb 42f 49f
4:50pm 4.5ft 7s 5s 16 18 mph 1015.7mb 43f 49f
3:50pm 4.5ft 6s 5s 16 18 mph 1016.4mb 43f 49f
2:50pm 4.5ft 6s 5s 20 22 mph 1016.6mb 43f 50f
1:50pm 4.5ft 6s 5s 18 20 mph 1017mb 43f 49f
12:50pm 4.5ft 6s 5s 18 22 mph 1017.5mb 43f 50f
11:50am 4.5ft 6s 5s 18 20 mph 1018.3mb 43f 49f
10:50am 4ft 6s 4s 18 20 mph 1018.6mb 43f 49f
9:50am 4.5ft 6s 5s 20 22 mph 1018.4mb 42f 50f
7:50am 4.5ft 5s 4s 18 22 mph 1018.1mb 42f 49f
6:50am 4.5ft 5s 4s 20 22 mph 1017.8mb 42f 49f
5:50am 4.5ft 6s 4s 20 22 mph 1017.6mb 42f 49f
4:50am 4.5ft 6s 5s 18 22 mph 1017.7mb 42f 49f
3:50am 4.5ft 6s 4s 20 22 mph 1017.7mb 42f 49f
2:50am 4ft 5s 4s 20 22 mph 1018mb 42f 49f
1:50am 4ft 6s 5s 18 20 mph 1018.3mb 42f 49f
12:50am 4.5ft 5s 5s 18 20 mph 1018.7mb 42f 49f
Sun 04/13 11:50pm 4.5ft 5s 4s 22 25 mph 1018.1mb 42f 50f
10:50pm 3.5ft 5s 4s 25 27 mph 1018.1mb 42f 51f
9:50pm 3.5ft 5s 4s 18 20 mph 1018.7mb 42f 48f
8:50pm 3.5ft 5s 4s 18 20 mph 1018.9mb 43f 49f
7:50pm 3.5ft 5s 4s 20 22 mph 1018.3mb 43f 49f
6:50pm 3.5ft 5s 4s 20 25 mph 1018mb 43f 50f
5:50pm 4ft 5s 4s 18 20 mph 1018.3mb 43f 49f
4:50pm 3.5ft 5s 4s 18 22 mph 1018.3mb 43f 49f
3:50pm 3.5ft 4s 4s 18 20 mph 1019mb 43f 49f
2:50pm 3.5ft 4s 4s 18 20 mph 1020.1mb 43f 48f
1:50pm 3.5ft 4s 4s 20 25 mph 1020.5mb 43f 49f
12:50pm 3.5ft 4s 4s 22 25 mph 1020.9mb 43f 48f
11:50am 3ft 8s 4s 20 22 mph 1021.6mb 43f 47f
10:50am 3ft 8s 4s 16 18 mph 1022.8mb 43f 47f
9:50am 3ft 8s 4s 18 20 mph 1022.9mb 43f 47f
8:50am 3ft 8s 5s 16 18 mph 1023.2mb 43f 47f
7:50am 3ft 7s 5s 16 18 mph 1023.3mb 43f 47f
6:50am 3ft 7s 6s 7 9 mph 1024mb 42f 45f
5:50am 3ft 8s 6s 7 13 mph 1023.9mb 42f 45f
4:50am 3.5ft 7s 6s 2 4 mph 1023.7mb 42f 46f
3:50am 3.5ft 7s 6s 9
mph
1023.2mb 42f 46f
2:50am 3.5ft 8s 6s 7 9 mph 1023.9mb 42f 44f
1:50am 4ft 8s 6s 9
mph
1023.4mb 42f 46f
12:50am 4ft 8s 6s 9 11 mph 1023.5mb 42f 46f
Sat 04/12 11:50pm 4ft 7s 6s 11
mph
1023.7mb 42f 46f
10:50pm 4ft 7s 6s 11 13 mph 1023.5mb 42f 46f